createdAt,value
2018-06-28T00:05:01.331Z,2.20
2018-06-28T00:10:04.493Z,2.20
2018-06-28T00:15:07.580Z,2.00
2018-06-28T00:20:10.725Z,2.00
2018-06-28T00:25:13.797Z,2.50
2018-06-28T00:30:16.958Z,3.00
2018-06-28T00:35:19.969Z,2.50
2018-06-28T00:40:23.042Z,2.67
2018-06-28T00:45:26.106Z,2.67
2018-06-28T00:50:29.158Z,2.30
2018-06-28T00:55:32.229Z,2.37
2018-06-28T01:00:35.293Z,2.37
2018-06-28T01:05:38.349Z,2.80
2018-06-28T01:10:41.424Z,2.30
2018-06-28T01:15:44.518Z,2.87
2018-06-28T01:20:47.647Z,2.70
2018-06-28T01:25:50.718Z,3.30
2018-06-28T01:30:53.798Z,3.03
2018-06-28T01:35:57.717Z,3.57
2018-06-28T01:41:00.825Z,3.73
2018-06-28T01:46:04.037Z,2.77
2018-06-28T01:51:07.227Z,3.00
2018-06-28T01:56:10.256Z,2.87
2018-06-28T02:01:14.177Z,3.13
2018-06-28T02:06:17.620Z,3.13
2018-06-28T02:11:20.614Z,3.40
2018-06-28T02:16:23.639Z,3.07
2018-06-28T02:21:26.713Z,3.23
2018-06-28T02:26:29.721Z,3.60
2018-06-28T02:31:32.774Z,4.53
2018-06-28T02:36:35.793Z,3.80
2018-06-28T02:41:38.826Z,4.40
2018-06-28T02:46:41.913Z,3.20
2018-06-28T02:51:44.929Z,4.10
2018-06-28T02:56:47.995Z,3.70
2018-06-28T03:01:51.069Z,3.77
2018-06-28T03:06:54.097Z,3.63
2018-06-28T03:11:57.149Z,3.77
2018-06-28T03:17:00.242Z,3.53
2018-06-28T03:22:03.302Z,3.63
2018-06-28T03:27:06.351Z,4.10
2018-06-28T03:32:09.363Z,5.00
2018-06-28T03:37:12.412Z,4.37
2018-06-28T03:42:15.448Z,4.63
2018-06-28T03:47:18.547Z,4.60
2018-06-28T03:52:21.636Z,4.87
2018-06-28T03:57:24.641Z,4.70
2018-06-28T04:02:27.734Z,4.23
2018-06-28T04:07:30.762Z,4.53
2018-06-28T04:12:33.846Z,4.63
2018-06-28T04:17:36.871Z,4.27
2018-06-28T04:22:39.914Z,4.17
2018-06-28T04:27:43.093Z,5.20
2018-06-28T04:32:46.094Z,5.20
2018-06-28T04:37:49.166Z,4.90
2018-06-28T04:42:52.196Z,5.20
2018-06-28T04:47:55.223Z,5.07
2018-06-28T04:52:58.283Z,6.03
2018-06-28T04:58:01.360Z,5.00
2018-06-28T05:03:04.386Z,4.90
2018-06-28T05:08:07.539Z,5.00
2018-06-28T05:13:10.619Z,5.07
2018-06-28T05:18:13.694Z,5.03
2018-06-28T05:23:16.747Z,6.20
2018-06-28T05:28:19.816Z,5.93
2018-06-28T05:33:22.837Z,5.40
2018-06-28T05:38:25.876Z,5.20
2018-06-28T05:43:28.900Z,5.17
2018-06-28T05:48:31.942Z,5.63
2018-06-28T05:53:35.760Z,5.00
2018-06-28T05:58:38.761Z,5.23
2018-06-28T06:03:41.946Z,4.20
2018-06-28T06:08:45.045Z,4.97
2018-06-28T06:13:48.273Z,4.40
2018-06-28T06:18:51.370Z,4.10
2018-06-28T06:23:54.393Z,4.00
2018-06-28T06:28:57.418Z,4.20
2018-06-28T06:34:00.446Z,4.50
2018-06-28T06:39:05.533Z,4.83
2018-06-28T06:44:08.686Z,4.00
2018-06-28T06:49:11.713Z,3.80
2018-06-28T06:54:14.721Z,3.77
2018-06-28T06:59:17.754Z,3.77
2018-06-28T07:04:20.801Z,3.30
2018-06-28T07:09:23.874Z,3.47
2018-06-28T07:14:26.908Z,3.47
2018-06-28T07:19:29.964Z,3.60
2018-06-28T07:24:32.950Z,4.27
2018-06-28T07:29:35.984Z,2.90
2018-06-28T07:34:39.076Z,3.37
2018-06-28T07:39:42.062Z,3.40
2018-06-28T07:44:45.097Z,3.10
2018-06-28T07:49:48.082Z,2.80
2018-06-28T07:54:51.104Z,2.67
2018-06-28T07:59:54.229Z,2.87
2018-06-28T08:04:58.454Z,2.80
2018-06-28T08:10:01.671Z,2.30
2018-06-28T08:15:04.860Z,2.60
2018-06-28T08:20:08.214Z,2.53
2018-06-28T08:25:11.327Z,2.07
2018-06-28T08:30:17.247Z,2.53
2018-06-28T08:35:20.293Z,1.93
2018-06-28T08:40:23.284Z,2.17
2018-06-28T08:45:26.365Z,2.20
2018-06-28T08:50:29.372Z,2.17
2018-06-28T08:55:32.395Z,2.40
2018-06-28T09:00:35.457Z,2.40
2018-06-28T09:05:38.501Z,1.47
2018-06-28T09:10:41.726Z,1.63
2018-06-28T09:15:44.766Z,1.63
2018-06-28T09:20:47.899Z,1.23
2018-06-28T09:25:51.007Z,1.47
2018-06-28T09:30:54.081Z,1.90
2018-06-28T09:35:57.354Z,1.57
2018-06-28T09:41:01.053Z,1.50
2018-06-28T09:46:04.250Z,1.90
2018-06-28T09:51:07.624Z,2.30
2018-06-28T09:56:10.768Z,1.47
2018-06-28T10:01:13.817Z,1.70
2018-06-28T10:06:16.804Z,1.80
2018-06-28T10:11:21.565Z,2.00
2018-06-28T10:16:24.709Z,2.07
2018-06-28T10:21:27.985Z,1.90
2018-06-28T10:26:31.021Z,1.50
2018-06-28T10:31:34.102Z,2.10
2018-06-28T10:36:37.130Z,1.47
2018-06-28T10:41:40.181Z,1.50
2018-06-28T10:46:43.182Z,1.43
2018-06-28T10:51:46.274Z,1.57
2018-06-28T10:56:49.722Z,1.57
2018-06-28T11:01:52.729Z,1.63
2018-06-28T11:06:55.755Z,1.60
2018-06-28T11:11:58.881Z,2.00
2018-06-28T11:17:01.954Z,1.60
2018-06-28T11:22:05.090Z,1.87
2018-06-28T11:27:08.165Z,1.50
2018-06-28T11:32:11.233Z,1.50
2018-06-28T11:37:14.277Z,1.60
2018-06-28T11:42:17.410Z,1.60
2018-06-28T11:47:20.504Z,1.73
2018-06-28T11:52:23.818Z,1.57
2018-06-28T11:57:26.814Z,1.70
2018-06-28T12:02:29.810Z,1.60
2018-06-28T12:07:32.844Z,1.87
2018-06-28T12:12:35.962Z,1.60
2018-06-28T12:17:38.991Z,1.40
2018-06-28T12:22:42.154Z,1.47
2018-06-28T12:27:45.175Z,1.50
2018-06-28T12:32:48.256Z,1.80
2018-06-28T12:37:51.312Z,1.20
2018-06-28T12:42:54.396Z,1.70
2018-06-28T12:48:08.662Z,1.53
2018-06-28T12:53:12.385Z,1.60
2018-06-28T12:58:15.463Z,1.67
2018-06-28T13:03:18.605Z,1.70
2018-06-28T13:08:21.691Z,1.60
2018-06-28T13:13:24.755Z,1.60
2018-06-28T13:18:27.810Z,1.57
2018-06-28T13:23:30.893Z,1.50
2018-06-28T13:28:34.033Z,1.30
2018-06-28T13:33:37.086Z,1.60
2018-06-28T13:38:40.141Z,1.63
2018-06-28T13:43:43.254Z,1.43
2018-06-28T13:48:46.285Z,1.43
2018-06-28T13:53:49.294Z,1.60
2018-06-28T13:58:52.358Z,1.80
2018-06-28T14:03:55.742Z,1.60
2018-06-28T14:08:58.725Z,1.40
2018-06-28T14:14:01.758Z,1.57
2018-06-28T14:19:04.799Z,1.30
2018-06-28T14:24:07.812Z,2.17
2018-06-28T14:29:11.745Z,1.50
2018-06-28T14:34:14.781Z,1.50
2018-06-28T14:39:17.942Z,2.00
2018-06-28T14:44:20.980Z,1.80
2018-06-28T14:49:24.067Z,1.77
2018-06-28T14:54:27.106Z,1.40
2018-06-28T14:59:30.108Z,1.50
2018-06-28T15:04:33.114Z,1.67
2018-06-28T15:09:36.136Z,1.60
2018-06-28T15:14:39.165Z,1.60
2018-06-28T15:19:42.272Z,1.73
2018-06-28T15:24:45.296Z,1.43
2018-06-28T15:29:48.285Z,1.33
2018-06-28T15:34:51.314Z,1.40
2018-06-28T15:39:54.310Z,1.53
2018-06-28T15:44:57.331Z,1.50
2018-06-28T15:50:00.334Z,1.63
2018-06-28T15:55:03.418Z,1.80
2018-06-28T16:00:07.178Z,2.00
2018-06-28T16:05:10.209Z,1.73
2018-06-28T16:10:13.345Z,1.60
2018-06-28T16:15:16.401Z,1.70
2018-06-28T16:20:19.421Z,1.70
2018-06-28T16:25:22.549Z,2.10
2018-06-28T16:30:25.595Z,1.67
2018-06-28T16:35:28.601Z,1.83
2018-06-28T16:40:31.611Z,1.97
2018-06-28T16:45:34.638Z,1.60
2018-06-28T16:50:37.642Z,1.80
2018-06-28T16:55:41.086Z,1.77
2018-06-28T17:00:44.182Z,1.90
2018-06-28T17:05:47.237Z,1.70
2018-06-28T17:10:50.295Z,2.07
2018-06-28T17:15:53.342Z,2.27
2018-06-28T17:20:56.463Z,1.80
2018-06-28T17:25:59.524Z,2.00
2018-06-28T17:31:02.562Z,2.10
2018-06-28T17:36:05.610Z,1.63
2018-06-28T17:41:08.613Z,2.30
2018-06-28T17:46:11.730Z,2.03
2018-06-28T17:51:14.801Z,1.93
2018-06-28T17:56:17.827Z,2.00
2018-06-28T18:01:20.826Z,2.30
2018-06-28T18:06:23.867Z,2.33
2018-06-28T18:11:26.902Z,1.87
2018-06-28T18:16:30.020Z,2.10
2018-06-28T18:21:33.082Z,2.20
2018-06-28T18:26:36.096Z,2.20
2018-06-28T18:31:39.221Z,1.93
2018-06-28T18:36:42.337Z,2.50
2018-06-28T18:41:45.399Z,2.60
2018-06-28T18:46:48.444Z,2.00
2018-06-28T18:51:51.479Z,1.90
2018-06-28T18:56:54.558Z,2.20
2018-06-28T19:01:57.858Z,2.20
2018-06-28T19:07:00.790Z,2.20
2018-06-28T19:12:03.891Z,2.57
2018-06-28T19:17:07.370Z,2.30
2018-06-28T19:22:16.208Z,2.20
2018-06-28T19:27:19.275Z,2.00
2018-06-28T19:32:27.981Z,2.10
2018-06-28T19:37:36.900Z,2.30
2018-06-28T19:42:45.557Z,2.00
2018-06-28T19:47:48.532Z,2.10
2018-06-28T19:52:55.795Z,1.90
2018-06-28T19:57:58.874Z,2.27
2018-06-28T20:03:07.749Z,2.20
2018-06-28T20:08:10.821Z,1.90
2018-06-28T20:13:19.452Z,2.87
2018-06-28T20:18:30.220Z,1.67
2018-06-28T20:28:47.927Z,2.10
2018-06-28T20:33:57.871Z,4.83
2018-06-28T20:39:00.968Z,3.77
2018-06-28T20:44:04.285Z,2.00
2018-06-28T20:49:07.619Z,2.43
2018-06-28T20:54:10.707Z,2.03
2018-06-28T20:59:13.823Z,2.20
2018-06-28T21:04:16.884Z,2.07
2018-06-28T21:09:19.940Z,2.40
2018-06-28T21:14:22.969Z,2.40
2018-06-28T21:19:26.327Z,3.20
2018-06-28T21:24:29.324Z,2.30
2018-06-28T21:29:32.566Z,2.00
2018-06-28T21:34:35.618Z,2.60
2018-06-28T21:39:38.659Z,1.67
2018-06-28T21:44:41.787Z,1.93
2018-06-28T21:49:44.833Z,2.27
2018-06-28T21:54:47.890Z,2.30
2018-06-28T21:59:50.893Z,1.90
2018-06-28T22:04:53.918Z,1.93
2018-06-28T22:09:56.917Z,1.87
2018-06-28T22:14:59.917Z,2.30
2018-06-28T22:20:02.977Z,2.20
2018-06-28T22:25:05.973Z,2.37
2018-06-28T22:30:09.013Z,2.00
2018-06-28T22:35:13.804Z,2.23
2018-06-28T22:40:17.113Z,2.10
2018-06-28T22:45:20.157Z,2.17
2018-06-28T22:50:23.186Z,1.93
2018-06-28T22:55:26.233Z,1.87
2018-06-28T23:00:30.300Z,1.90
2018-06-28T23:05:33.333Z,2.20
2018-06-28T23:10:36.483Z,2.50
2018-06-28T23:15:39.528Z,2.80
2018-06-28T23:20:42.525Z,3.07
2018-06-28T23:25:45.513Z,3.60
2018-06-28T23:30:48.549Z,3.30
2018-06-28T23:35:51.618Z,3.23
2018-06-28T23:40:54.624Z,3.77
2018-06-28T23:45:57.665Z,3.97
2018-06-28T23:51:00.737Z,4.07
2018-06-28T23:56:03.831Z,3.57
